Time;durP1;ratioP1;P1;durP2;ratioP2;P2;SDS_P1;SDS_P2;PMS_P1;PMS_P2;Temp;Humidity;BMP_temperature;BMP_pressure;BME280_temperature;BME280_humidity;BME280_pressure;Samples;Min_cycle;Max_cycle;Signal;HPM_P1;HPM_P2
2022/09/16 00:01:12;;;;;;;5.03;1.95;;;;;;;;;;5042621;28;20434;-81
2022/09/16 00:03:39;;;;;;;7.50;2.08;;;;;;;;;;5043816;28;20479;-81
2022/09/16 00:06:06;;;;;;;4.17;1.40;;;;;;;;;;5046469;28;20429;-82
2022/09/16 00:08:34;;;;;;;6.57;2.00;;;;;;;;;;5046051;28;20421;-82
2022/09/16 00:11:01;;;;;;;4.47;1.70;;;;;;;;;;5046118;28;20429;-81
2022/09/16 00:13:27;;;;;;;7.70;2.30;;;;;;;;;;5047007;28;20421;-80
2022/09/16 00:15:54;;;;;;;6.43;2.20;;;;;;;;;;5047940;28;20424;-82
2022/09/16 00:18:20;;;;;;;6.05;2.25;;;;;;;;;;5047027;28;20430;-81
2022/09/16 00:20:47;;;;;;;4.77;2.03;;;;;;;;;;5046154;28;20436;-81
2022/09/16 00:23:14;;;;;;;7.55;2.40;;;;;;;;;;5045814;28;20923;-81
2022/09/16 00:25:42;;;;;;;8.75;2.05;;;;;;;;;;5060494;28;20429;-81
2022/09/16 00:28:09;;;;;;;6.10;2.20;;;;;;;;;;5045484;28;20414;-81
2022/09/16 00:30:35;;;;;;;7.43;2.30;;;;;;;;;;5044963;28;20429;-81
2022/09/16 00:33:02;;;;;;;5.28;2.65;;;;;;;;;;5046691;28;20428;-80
2022/09/16 00:35:29;;;;;;;6.05;2.55;;;;;;;;;;5046515;28;20434;-80
2022/09/16 00:37:55;;;;;;;9.88;2.55;;;;;;;;;;5045466;28;20415;-82
2022/09/16 00:40:22;;;;;;;6.50;2.55;;;;;;;;;;5048017;28;20429;-80
2022/09/16 00:42:49;;;;;;;7.30;2.80;;;;;;;;;;5043150;28;20436;-80
2022/09/16 00:45:17;;;;;;;9.27;2.50;;;;;;;;;;5044305;28;20436;-80
2022/09/16 00:47:46;;;;;;;8.10;2.78;;;;;;;;;;5045054;28;20928;-80
2022/09/16 00:50:18;;;;;;;8.05;2.95;;;;;;;;;;5046726;28;20440;-80
2022/09/16 00:52:45;;;;;;;6.85;2.40;;;;;;;;;;5045296;28;20434;-80
2022/09/16 00:55:15;;;;;;;8.63;3.10;;;;;;;;;;5043922;28;20923;-81
2022/09/16 00:57:42;;;;;;;6.47;2.38;;;;;;;;;;5042478;28;20429;-81
2022/09/16 01:00:12;;;;;;;5.80;2.42;;;;;;;;;;5042780;28;20434;-80
2022/09/16 01:02:39;;;;;;;5.00;2.08;;;;;;;;;;5044317;28;20437;-81
2022/09/16 01:05:06;;;;;;;7.30;2.70;;;;;;;;;;5044217;28;20460;-80
2022/09/16 01:07:34;;;;;;;7.30;2.80;;;;;;;;;;5046172;28;20805;-84
2022/09/16 01:10:00;;;;;;;6.22;3.08;;;;;;;;;;5045491;28;20438;-80
2022/09/16 01:12:28;;;;;;;7.90;3.10;;;;;;;;;;5047219;28;20427;-80
2022/09/16 01:14:55;;;;;;;4.65;3.00;;;;;;;;;;5041159;28;20528;-81
2022/09/16 01:17:26;;;;;;;9.18;3.30;;;;;;;;;;5045084;28;20432;-80
2022/09/16 01:20:03;;;;;;;7.43;3.20;;;;;;;;;;5046914;28;20508;-80
2022/09/16 01:22:40;;;;;;;6.30;3.00;;;;;;;;;;5046532;28;20480;-80
2022/09/16 01:25:10;;;;;;;3.47;2.47;;;;;;;;;;5046529;28;21019;-81
2022/09/16 01:27:49;;;;;;;5.72;2.80;;;;;;;;;;5044877;28;20438;-80
2022/09/16 01:30:18;;;;;;;5.40;2.90;;;;;;;;;;5045790;28;20427;-81
2022/09/16 01:32:52;;;;;;;5.30;2.30;;;;;;;;;;5045773;28;20464;-80
2022/09/16 01:35:26;;;;;;;9.63;3.40;;;;;;;;;;5044419;28;20435;-81
2022/09/16 01:37:56;;;;;;;6.60;2.60;;;;;;;;;;5046005;28;20426;-80
2022/09/16 01:40:28;;;;;;;8.63;2.53;;;;;;;;;;5046428;28;20441;-80
2022/09/16 01:42:57;;;;;;;8.63;2.88;;;;;;;;;;5043115;28;20461;-81
2022/09/16 01:45:28;;;;;;;3.60;2.25;;;;;;;;;;5044713;28;20429;-80
2022/09/16 01:47:59;;;;;;;5.22;2.50;;;;;;;;;;5044760;28;20907;-81
2022/09/16 01:50:27;;;;;;;9.32;2.40;;;;;;;;;;5045992;28;20922;-80
2022/09/16 01:52:58;;;;;;;6.57;2.53;;;;;;;;;;5046120;28;20921;-81
2022/09/16 01:55:29;;;;;;;8.95;2.20;;;;;;;;;;5047229;28;20503;-80
2022/09/16 01:57:57;;;;;;;6.95;2.30;;;;;;;;;;5045467;28;20417;-80
2022/09/16 02:00:23;;;;;;;4.68;2.45;;;;;;;;;;5042940;28;20936;-80
2022/09/16 02:02:53;;;;;;;6.18;2.10;;;;;;;;;;5044965;28;20440;-80
2022/09/16 02:05:24;;;;;;;7.57;1.95;;;;;;;;;;5045154;28;20437;-80
2022/09/16 02:07:53;;;;;;;7.30;2.33;;;;;;;;;;5043954;28;20934;-81
2022/09/16 02:10:22;;;;;;;3.78;1.92;;;;;;;;;;5045841;28;20437;-80
2022/09/16 02:12:50;;;;;;;4.90;2.10;;;;;;;;;;5044917;28;20464;-80
2022/09/16 02:15:21;;;;;;;3.40;2.00;;;;;;;;;;5044530;28;20937;-81
2022/09/16 02:17:50;;;;;;;3.70;1.90;;;;;;;;;;5041349;28;20983;-80
2022/09/16 02:20:21;;;;;;;6.50;1.90;;;;;;;;;;5041035;28;20445;-80
2022/09/16 02:22:51;;;;;;;4.90;2.10;;;;;;;;;;5043955;28;20468;-80
2022/09/16 02:25:19;;;;;;;5.35;2.00;;;;;;;;;;5043623;28;20429;-80
2022/09/16 02:27:47;;;;;;;4.50;1.73;;;;;;;;;;5039215;28;20433;-80
2022/09/16 02:30:15;;;;;;;5.60;2.00;;;;;;;;;;5040204;28;20442;-80
2022/09/16 02:32:44;;;;;;;4.10;2.25;;;;;;;;;;5041540;28;20459;-80
2022/09/16 02:35:13;;;;;;;7.67;1.70;;;;;;;;;;5041113;28;20444;-80
2022/09/16 02:37:42;;;;;;;5.50;1.80;;;;;;;;;;5044081;28;20438;-81
2022/09/16 02:40:14;;;;;;;6.07;1.95;;;;;;;;;;5043143;28;20441;-81
2022/09/16 02:42:41;;;;;;;4.25;1.55;;;;;;;;;;5043069;28;21353;-81
2022/09/16 02:45:08;;;;;;;3.90;1.60;;;;;;;;;;5040675;28;20431;-80
2022/09/16 02:47:40;;;;;;;5.82;1.48;;;;;;;;;;5039871;28;20787;-82
2022/09/16 02:50:10;;;;;;;6.55;1.90;;;;;;;;;;5045631;28;20437;-80
2022/09/16 02:52:40;;;;;;;4.30;1.50;;;;;;;;;;5042651;28;20517;-81
2022/09/16 02:55:11;;;;;;;2.80;1.20;;;;;;;;;;5043167;28;20437;-80
2022/09/16 02:57:38;;;;;;;4.97;1.70;;;;;;;;;;5039525;28;20442;-81
2022/09/16 03:00:05;;;;;;;3.80;1.60;;;;;;;;;;5043264;28;20433;-80
2022/09/16 03:02:33;;;;;;;4.15;1.60;;;;;;;;;;5043122;28;20433;-81
2022/09/16 03:04:59;;;;;;;4.80;1.73;;;;;;;;;;5042298;28;20920;-80
2022/09/16 03:07:26;;;;;;;2.88;1.65;;;;;;;;;;5041266;28;20431;-81
2022/09/16 03:09:53;;;;;;;7.32;1.83;;;;;;;;;;5042143;28;20508;-81
2022/09/16 03:12:24;;;;;;;2.47;1.30;;;;;;;;;;5042800;28;20421;-81
2022/09/16 03:15:02;;;;;;;4.38;1.70;;;;;;;;;;5042169;28;20516;-81
2022/09/16 03:17:44;;;;;;;6.43;1.60;;;;;;;;;;5042110;28;20429;-81
2022/09/16 03:20:16;;;;;;;6.85;1.60;;;;;;;;;;5038840;28;20443;-80
2022/09/16 03:22:47;;;;;;;6.30;2.10;;;;;;;;;;5042640;28;20521;-81
2022/09/16 03:25:19;;;;;;;3.83;2.00;;;;;;;;;;5043115;28;20429;-81
2022/09/16 03:27:48;;;;;;;8.30;2.00;;;;;;;;;;5039898;28;20448;-81
2022/09/16 03:30:16;;;;;;;5.82;1.65;;;;;;;;;;5043954;28;20415;-81
2022/09/16 03:32:44;;;;;;;3.85;2.10;;;;;;;;;;5043139;28;20431;-81
2022/09/16 03:35:13;;;;;;;5.40;2.13;;;;;;;;;;5043446;28;20447;-81
2022/09/16 03:37:40;;;;;;;4.67;1.80;;;;;;;;;;5042408;28;20506;-81
2022/09/16 03:40:09;;;;;;;6.30;2.37;;;;;;;;;;5042929;28;20449;-81
2022/09/16 03:42:38;;;;;;;7.22;2.80;;;;;;;;;;5043059;28;20406;-81
2022/09/16 03:45:05;;;;;;;7.07;2.90;;;;;;;;;;5042896;28;20543;-80
2022/09/16 03:47:32;;;;;;;6.20;2.30;;;;;;;;;;5040625;28;20465;-81
2022/09/16 03:49:59;;;;;;;7.57;2.30;;;;;;;;;;5043937;28;20440;-81
2022/09/16 03:52:25;;;;;;;9.02;2.70;;;;;;;;;;5040114;28;20433;-81
2022/09/16 03:54:52;;;;;;;6.25;2.55;;;;;;;;;;5043386;28;20422;-81
2022/09/16 03:57:18;;;;;;;3.80;2.40;;;;;;;;;;5042527;28;20429;-81
2022/09/16 03:59:44;;;;;;;5.80;2.15;;;;;;;;;;5043196;28;20510;-81
2022/09/16 04:02:11;;;;;;;5.95;2.58;;;;;;;;;;5041571;28;20532;-81
2022/09/16 04:04:39;;;;;;;7.18;2.53;;;;;;;;;;5039666;28;20429;-81
2022/09/16 04:07:05;;;;;;;5.40;2.30;;;;;;;;;;5038492;28;20793;-81
2022/09/16 04:09:32;;;;;;;9.45;2.90;;;;;;;;;;5039304;28;20433;-81
2022/09/16 04:11:58;;;;;;;10.13;2.60;;;;;;;;;;5041955;28;21005;-81
2022/09/16 04:14:24;;;;;;;7.45;2.70;;;;;;;;;;5040450;28;20437;-80
2022/09/16 04:16:51;;;;;;;10.40;2.90;;;;;;;;;;5040958;28;20437;-81
2022/09/16 04:19:17;;;;;;;6.93;2.40;;;;;;;;;;5040297;28;20429;-80
2022/09/16 04:21:45;;;;;;;6.70;2.40;;;;;;;;;;5042235;28;20440;-80
2022/09/16 04:24:12;;;;;;;5.15;2.30;;;;;;;;;;5039939;28;20440;-80
2022/09/16 04:26:38;;;;;;;3.22;2.20;;;;;;;;;;5041551;28;20424;-80
2022/09/16 04:29:04;;;;;;;6.45;2.50;;;;;;;;;;5041890;28;20935;-80
2022/09/16 04:31:31;;;;;;;6.05;2.45;;;;;;;;;;5042546;28;20938;-81
2022/09/16 04:33:57;;;;;;;4.18;2.17;;;;;;;;;;5036975;28;20435;-81
2022/09/16 04:36:24;;;;;;;7.40;2.35;;;;;;;;;;5042321;28;20434;-81
2022/09/16 04:38:52;;;;;;;6.20;2.20;;;;;;;;;;5040174;28;20493;-81
2022/09/16 04:41:19;;;;;;;5.28;2.15;;;;;;;;;;5040503;28;20429;-81
2022/09/16 04:43:47;;;;;;;5.95;1.80;;;;;;;;;;5042842;28;20435;-80
2022/09/16 04:46:13;;;;;;;6.72;2.20;;;;;;;;;;5042841;28;20458;-81
2022/09/16 04:48:40;;;;;;;4.90;2.40;;;;;;;;;;5036711;28;20921;-80
2022/09/16 04:51:08;;;;;;;4.40;2.00;;;;;;;;;;5038687;28;20433;-81
2022/09/16 04:53:34;;;;;;;6.80;1.92;;;;;;;;;;5045679;28;20475;-82
2022/09/16 04:56:07;;;;;;;6.25;2.30;;;;;;;;;;5045828;28;20433;-80
2022/09/16 04:58:33;;;;;;;10.25;2.10;;;;;;;;;;5043073;28;20425;-81
2022/09/16 05:01:03;;;;;;;3.92;1.50;;;;;;;;;;5045744;28;20436;-80
2022/09/16 05:03:30;;;;;;;4.23;2.17;;;;;;;;;;5045245;28;20903;-81
2022/09/16 05:06:03;;;;;;;4.43;1.92;;;;;;;;;;5045052;28;21001;-81
2022/09/16 05:08:30;;;;;;;6.30;2.22;;;;;;;;;;5040875;28;20482;-82
2022/09/16 05:11:02;;;;;;;5.13;2.03;;;;;;;;;;5044382;28;20445;-81
2022/09/16 05:13:29;;;;;;;7.05;2.40;;;;;;;;;;5043065;28;20432;-80
2022/09/16 05:15:56;;;;;;;6.78;1.77;;;;;;;;;;5046241;28;20445;-81
2022/09/16 05:18:22;;;;;;;6.30;2.47;;;;;;;;;;5042983;28;20425;-81
2022/09/16 05:20:49;;;;;;;6.40;1.77;;;;;;;;;;5043992;28;20435;-81
2022/09/16 05:23:15;;;;;;;4.70;2.15;;;;;;;;;;5044459;28;20797;-80
2022/09/16 05:25:42;;;;;;;8.40;2.40;;;;;;;;;;5043055;28;20429;-81
2022/09/16 05:28:09;;;;;;;8.68;2.30;;;;;;;;;;5042668;28;20423;-81
2022/09/16 05:30:37;;;;;;;7.23;2.07;;;;;;;;;;5045589;28;20437;-81
2022/09/16 05:33:04;;;;;;;6.93;1.92;;;;;;;;;;5042515;28;20414;-80
2022/09/16 05:35:31;;;;;;;8.00;2.10;;;;;;;;;;5042522;28;20434;-80
2022/09/16 05:37:57;;;;;;;9.32;2.40;;;;;;;;;;5042680;28;20433;-81
2022/09/16 05:40:26;;;;;;;5.97;2.07;;;;;;;;;;5042409;28;20469;-80
2022/09/16 05:42:52;;;;;;;7.13;2.28;;;;;;;;;;5042128;28;20463;-81
2022/09/16 05:45:19;;;;;;;6.22;2.30;;;;;;;;;;5044628;28;20431;-81
2022/09/16 05:47:48;;;;;;;5.47;2.00;;;;;;;;;;5042612;28;20435;-81
2022/09/16 05:50:15;;;;;;;6.80;2.30;;;;;;;;;;5043962;28;20430;-81
2022/09/16 05:52:42;;;;;;;6.97;1.95;;;;;;;;;;5041989;28;20421;-82
2022/09/16 05:55:08;;;;;;;8.13;2.33;;;;;;;;;;5042176;28;20442;-81
2022/09/16 05:57:35;;;;;;;7.25;2.58;;;;;;;;;;5045482;28;20459;-81
2022/09/16 06:00:02;;;;;;;8.05;2.40;;;;;;;;;;5045331;28;20471;-81
2022/09/16 06:02:29;;;;;;;8.00;2.30;;;;;;;;;;5041500;28;20429;-81
2022/09/16 06:04:58;;;;;;;6.57;2.00;;;;;;;;;;5043267;28;20532;-81
2022/09/16 06:07:25;;;;;;;7.65;2.30;;;;;;;;;;5041842;28;20464;-84
2022/09/16 06:09:51;;;;;;;7.28;2.30;;;;;;;;;;5043175;28;20428;-81
2022/09/16 06:12:18;;;;;;;11.20;2.90;;;;;;;;;;5046097;28;20453;-81
2022/09/16 06:14:44;;;;;;;4.80;2.30;;;;;;;;;;5043755;28;20431;-81
2022/09/16 06:17:11;;;;;;;8.80;2.00;;;;;;;;;;5043883;28;20432;-81
2022/09/16 06:19:38;;;;;;;6.87;2.00;;;;;;;;;;5043638;28;20423;-80
2022/09/16 06:22:05;;;;;;;6.47;2.33;;;;;;;;;;5046680;28;20428;-80
2022/09/16 06:24:32;;;;;;;6.43;1.90;;;;;;;;;;5042871;28;20432;-80
2022/09/16 06:26:58;;;;;;;6.63;2.50;;;;;;;;;;5042439;28;20765;-80
2022/09/16 06:29:25;;;;;;;7.93;2.20;;;;;;;;;;5034699;28;20906;-80
2022/09/16 06:31:51;;;;;;;9.55;2.30;;;;;;;;;;5042326;28;20445;-80
2022/09/16 06:34:18;;;;;;;5.10;1.80;;;;;;;;;;5041190;28;20429;-80
2022/09/16 06:36:44;;;;;;;5.80;1.90;;;;;;;;;;5040561;28;20573;-80
2022/09/16 06:39:13;;;;;;;6.40;1.80;;;;;;;;;;5043994;28;20423;-80
2022/09/16 06:41:39;;;;;;;7.00;2.00;;;;;;;;;;5043721;28;20425;-80
2022/09/16 06:44:06;;;;;;;7.70;1.98;;;;;;;;;;5042519;28;21308;-81
2022/09/16 06:46:32;;;;;;;7.10;1.95;;;;;;;;;;5044520;28;20433;-80
2022/09/16 06:48:59;;;;;;;5.97;2.33;;;;;;;;;;5041519;28;20431;-80
2022/09/16 06:51:26;;;;;;;6.60;2.10;;;;;;;;;;5044836;28;20426;-82
2022/09/16 06:53:54;;;;;;;5.20;1.90;;;;;;;;;;5044931;28;20516;-81
2022/09/16 06:56:22;;;;;;;5.90;1.80;;;;;;;;;;5042238;28;20441;-82
2022/09/16 06:58:50;;;;;;;7.80;2.13;;;;;;;;;;5041237;28;20790;-82
2022/09/16 07:01:18;;;;;;;7.60;2.00;;;;;;;;;;5043052;28;20443;-82
2022/09/16 07:03:45;;;;;;;9.68;2.28;;;;;;;;;;5042426;28;20433;-82
2022/09/16 07:06:12;;;;;;;5.68;1.73;;;;;;;;;;5041557;28;20427;-82
2022/09/16 07:08:41;;;;;;;4.70;1.95;;;;;;;;;;5043523;28;20445;-82
2022/09/16 07:11:10;;;;;;;7.50;2.15;;;;;;;;;;5042172;28;20438;-82
2022/09/16 07:13:38;;;;;;;10.35;2.30;;;;;;;;;;5041291;28;20435;-82
2022/09/16 07:16:05;;;;;;;6.70;1.90;;;;;;;;;;5043186;28;20437;-83
2022/09/16 07:18:32;;;;;;;9.25;2.65;;;;;;;;;;5040660;28;20433;-81
2022/09/16 07:21:02;;;;;;;6.82;1.70;;;;;;;;;;5040008;28;20441;-85
2022/09/16 07:23:29;;;;;;;10.63;1.95;;;;;;;;;;5042120;28;20492;-81
2022/09/16 07:25:59;;;;;;;6.93;1.88;;;;;;;;;;5038591;28;20436;-81
2022/09/16 07:28:26;;;;;;;9.50;1.52;;;;;;;;;;5039421;28;20952;-81
2022/09/16 07:30:54;;;;;;;8.40;1.70;;;;;;;;;;5041388;28;20430;-81
2022/09/16 07:33:20;;;;;;;8.75;1.90;;;;;;;;;;5041054;28;20439;-81
2022/09/16 07:35:47;;;;;;;8.30;1.90;;;;;;;;;;5039978;28;20429;-81
2022/09/16 07:38:13;;;;;;;9.30;2.45;;;;;;;;;;5041378;28;20429;-81
2022/09/16 07:40:40;;;;;;;7.60;1.90;;;;;;;;;;5045048;28;20419;-81
2022/09/16 07:43:07;;;;;;;10.07;2.33;;;;;;;;;;5044006;28;20458;-81
2022/09/16 07:45:33;;;;;;;5.47;2.10;;;;;;;;;;5041158;28;20437;-81
2022/09/16 07:48:01;;;;;;;6.15;2.00;;;;;;;;;;5044169;28;20436;-81
2022/09/16 07:50:28;;;;;;;6.28;2.30;;;;;;;;;;5043873;28;20421;-81
2022/09/16 07:52:54;;;;;;;4.88;1.50;;;;;;;;;;5041102;28;20441;-82
2022/09/16 07:55:21;;;;;;;6.00;2.00;;;;;;;;;;5039679;28;20433;-80
2022/09/16 07:57:47;;;;;;;4.78;1.60;;;;;;;;;;5041045;28;20857;-80
2022/09/16 08:00:15;;;;;;;6.85;1.55;;;;;;;;;;5040547;28;20428;-81
2022/09/16 08:02:42;;;;;;;6.90;2.00;;;;;;;;;;5041591;28;20513;-79
2022/09/16 08:05:10;;;;;;;4.93;1.88;;;;;;;;;;5054119;28;20418;-82
2022/09/16 08:07:37;;;;;;;6.97;2.00;;;;;;;;;;5041386;28;20930;-80
2022/09/16 08:10:04;;;;;;;8.40;2.42;;;;;;;;;;5041484;28;20435;-79
2022/09/16 08:12:32;;;;;;;7.22;1.85;;;;;;;;;;5037432;28;20439;-79
2022/09/16 08:14:58;;;;;;;7.10;2.23;;;;;;;;;;5040750;28;20429;-79
2022/09/16 08:17:25;;;;;;;15.60;2.50;;;;;;;;;;5042357;28;20433;-81
2022/09/16 08:19:51;;;;;;;8.70;2.40;;;;;;;;;;5041478;28;20938;-80
2022/09/16 08:22:22;;;;;;;7.90;2.30;;;;;;;;;;5042335;28;20421;-79
2022/09/16 08:24:48;;;;;;;7.27;1.80;;;;;;;;;;5038897;28;20484;-82
2022/09/16 08:27:15;;;;;;;8.35;2.30;;;;;;;;;;5040254;28;20440;-81
2022/09/16 08:29:41;;;;;;;8.10;2.10;;;;;;;;;;5043999;28;20427;-79
2022/09/16 08:32:07;;;;;;;7.50;2.30;;;;;;;;;;5045089;28;20445;-80
2022/09/16 08:34:34;;;;;;;11.30;2.45;;;;;;;;;;5042800;28;20930;-80
2022/09/16 08:37:00;;;;;;;7.40;2.30;;;;;;;;;;5042469;28;20433;-81
2022/09/16 08:39:28;;;;;;;5.25;1.77;;;;;;;;;;5041417;28;20414;-81
2022/09/16 08:42:01;;;;;;;6.30;2.20;;;;;;;;;;5043602;28;20907;-80
2022/09/16 08:44:34;;;;;;;7.05;2.05;;;;;;;;;;5043036;28;20405;-81
2022/09/16 08:47:02;;;;;;;10.30;2.10;;;;;;;;;;5045350;28;20424;-80
2022/09/16 08:49:32;;;;;;;7.68;2.47;;;;;;;;;;5045082;28;20405;-82
2022/09/16 08:51:59;;;;;;;6.60;2.10;;;;;;;;;;5044600;28;20432;-81
2022/09/16 08:54:30;;;;;;;8.13;2.40;;;;;;;;;;5042324;28;20441;-82
2022/09/16 08:56:58;;;;;;;9.47;2.10;;;;;;;;;;5045825;28;20437;-82
2022/09/16 08:59:27;;;;;;;11.63;2.47;;;;;;;;;;5043963;28;20401;-81
2022/09/16 09:01:56;;;;;;;12.25;2.10;;;;;;;;;;5043684;28;20447;-81
2022/09/16 09:04:23;;;;;;;7.50;2.30;;;;;;;;;;5041297;28;20400;-81
2022/09/16 09:06:56;;;;;;;8.13;2.33;;;;;;;;;;5041959;28;20429;-81
2022/09/16 09:09:31;;;;;;;10.95;2.30;;;;;;;;;;5038785;28;20794;-81
2022/09/16 09:12:01;;;;;;;8.97;2.00;;;;;;;;;;5043039;28;20421;-81
2022/09/16 09:14:32;;;;;;;6.90;2.00;;;;;;;;;;5043161;28;20431;-81
2022/09/16 09:17:01;;;;;;;10.83;2.20;;;;;;;;;;5043510;28;20924;-80
2022/09/16 09:19:36;;;;;;;10.40;2.80;;;;;;;;;;5041729;28;20416;-81
2022/09/16 09:22:08;;;;;;;10.15;2.00;;;;;;;;;;5044193;28;20435;-82
2022/09/16 09:24:44;;;;;;;9.07;2.50;;;;;;;;;;5044427;28;20434;-80
2022/09/16 09:27:15;;;;;;;12.40;2.90;;;;;;;;;;5042875;28;20902;-81
2022/09/16 09:29:59;;;;;;;8.90;1.98;;;;;;;;;;5042601;28;20923;-80
2022/09/16 09:32:32;;;;;;;10.70;2.40;;;;;;;;;;5040054;28;20998;-81
2022/09/16 09:35:13;;;;;;;11.98;2.25;;;;;;;;;;5040218;28;20431;-82
2022/09/16 09:37:57;;;;;;;11.73;2.58;;;;;;;;;;5042176;28;20895;-81
2022/09/16 09:40:27;;;;;;;10.52;2.90;;;;;;;;;;5045484;28;20417;-82
2022/09/16 09:43:01;;;;;;;8.90;2.47;;;;;;;;;;5044636;28;20433;-81
2022/09/16 09:45:29;;;;;;;10.15;2.45;;;;;;;;;;5041057;28;20531;-82
2022/09/16 09:47:58;;;;;;;11.48;2.15;;;;;;;;;;5043665;28;20445;-82
2022/09/16 09:50:28;;;;;;;8.67;2.00;;;;;;;;;;5042887;28;20422;-81
2022/09/16 09:52:59;;;;;;;7.90;1.90;;;;;;;;;;5043730;28;20429;-80
2022/09/16 09:55:26;;;;;;;6.85;1.73;;;;;;;;;;5041614;28;20430;-80
2022/09/16 09:58:04;;;;;;;8.65;1.70;;;;;;;;;;5044502;28;20436;-81
2022/09/16 10:00:30;;;;;;;4.73;1.83;;;;;;;;;;5042738;28;20429;-81
2022/09/16 10:03:02;;;;;;;9.60;1.98;;;;;;;;;;5043931;28;20435;-81
2022/09/16 10:05:29;;;;;;;8.70;2.57;;;;;;;;;;5040804;28;20473;-83
2022/09/16 10:07:58;;;;;;;9.70;2.40;;;;;;;;;;5041332;28;20437;-81
2022/09/16 10:10:25;;;;;;;9.23;2.00;;;;;;;;;;5040171;28;20435;-81
2022/09/16 10:12:52;;;;;;;8.13;2.17;;;;;;;;;;5044243;28;20691;-82
2022/09/16 10:15:24;;;;;;;10.63;2.60;;;;;;;;;;5045414;28;20419;-82
2022/09/16 10:17:51;;;;;;;14.30;2.58;;;;;;;;;;5042345;28;20440;-81
2022/09/16 10:20:25;;;;;;;8.55;2.20;;;;;;;;;;5039994;28;20427;-81
2022/09/16 10:22:54;;;;;;;10.27;2.10;;;;;;;;;;5044225;28;20524;-81
2022/09/16 10:25:23;;;;;;;9.80;2.60;;;;;;;;;;5040271;28;21155;-81
2022/09/16 10:27:55;;;;;;;11.57;2.90;;;;;;;;;;5041048;28;20500;-81
2022/09/16 10:30:22;;;;;;;8.55;2.20;;;;;;;;;;5040076;28;20433;-80
2022/09/16 10:32:51;;;;;;;8.60;2.40;;;;;;;;;;5040664;28;20433;-81
2022/09/16 10:35:20;;;;;;;7.67;2.10;;;;;;;;;;5042130;28;20520;-78
2022/09/16 10:37:49;;;;;;;7.10;1.73;;;;;;;;;;5041030;28;20427;-80
2022/09/16 10:40:17;;;;;;;7.97;1.80;;;;;;;;;;5041759;28;20532;-81
2022/09/16 10:42:46;;;;;;;7.80;2.00;;;;;;;;;;5040705;28;20433;-80
2022/09/16 10:45:14;;;;;;;6.55;2.20;;;;;;;;;;5039147;28;20422;-83
2022/09/16 10:47:47;;;;;;;11.00;2.10;;;;;;;;;;5038003;28;20429;-82
2022/09/16 10:50:16;;;;;;;9.75;1.60;;;;;;;;;;5039114;28;20422;-83
2022/09/16 10:52:43;;;;;;;4.90;1.25;;;;;;;;;;5042664;28;20435;-82
2022/09/16 10:55:12;;;;;;;7.60;1.80;;;;;;;;;;5042479;28;20432;-82
2022/09/16 10:57:40;;;;;;;4.28;1.30;;;;;;;;;;5039756;28;20434;-83
2022/09/16 11:00:13;;;;;;;5.72;1.60;;;;;;;;;;5042298;28;20413;-82
2022/09/16 11:02:49;;;;;;;8.05;1.85;;;;;;;;;;5038986;28;20455;-83
2022/09/16 11:05:18;;;;;;;5.95;1.50;;;;;;;;;;5039542;28;20429;-82
2022/09/16 11:07:48;;;;;;;6.13;1.77;;;;;;;;;;5041672;28;20447;-82
2022/09/16 11:10:22;;;;;;;6.82;1.90;;;;;;;;;;5042205;28;20424;-82
2022/09/16 11:13:03;;;;;;;6.38;1.60;;;;;;;;;;5040312;28;20421;-82
2022/09/16 11:15:35;;;;;;;5.95;1.70;;;;;;;;;;5039462;28;20490;-81
2022/09/16 11:18:12;;;;;;;6.65;1.73;;;;;;;;;;5042149;28;20533;-82
2022/09/16 11:20:48;;;;;;;5.70;1.50;;;;;;;;;;5036671;28;20436;-81
2022/09/16 11:23:22;;;;;;;5.85;1.70;;;;;;;;;;5043514;28;20439;-82
2022/09/16 11:25:54;;;;;;;4.03;1.40;;;;;;;;;;5041624;28;20421;-81
2022/09/16 11:28:31;;;;;;;6.07;1.17;;;;;;;;;;5042402;28;20520;-83
2022/09/16 11:31:05;;;;;;;5.90;1.10;;;;;;;;;;5042569;28;20952;-82
2022/09/16 11:33:36;;;;;;;10.40;1.50;;;;;;;;;;5040928;28;20866;-81
2022/09/16 11:36:10;;;;;;;7.40;1.75;;;;;;;;;;5042087;28;20427;-83
2022/09/16 11:38:40;;;;;;;8.25;2.15;;;;;;;;;;5041127;28;20429;-83
2022/09/16 11:41:11;;;;;;;7.10;1.97;;;;;;;;;;5040615;28;20932;-83
2022/09/16 11:43:54;;;;;;;7.00;1.60;;;;;;;;;;5043659;28;20434;-82
2022/09/16 11:46:23;;;;;;;9.07;2.40;;;;;;;;;;5042158;28;21056;-82
2022/09/16 11:49:00;;;;;;;7.43;2.20;;;;;;;;;;5043646;28;20916;-82
2022/09/16 11:51:36;;;;;;;8.40;2.42;;;;;;;;;;5043138;28;20421;-81
2022/09/16 11:54:09;;;;;;;10.60;2.20;;;;;;;;;;5041175;28;20419;-82
2022/09/16 11:56:38;;;;;;;7.18;1.77;;;;;;;;;;5041162;28;20427;-82
2022/09/16 11:59:10;;;;;;;10.35;2.25;;;;;;;;;;5041184;28;20433;-83
2022/09/16 12:01:39;;;;;;;10.63;2.97;;;;;;;;;;5040027;28;21018;-82
2022/09/16 12:04:11;;;;;;;9.03;2.20;;;;;;;;;;5055429;28;20429;-83
2022/09/16 12:06:40;;;;;;;8.50;2.47;;;;;;;;;;5040669;28;20433;-82
2022/09/16 12:09:10;;;;;;;10.90;2.90;;;;;;;;;;5040510;28;20522;-82
2022/09/16 12:11:38;;;;;;;9.65;2.70;;;;;;;;;;5040712;28;20907;-82
2022/09/16 12:14:08;;;;;;;12.45;2.35;;;;;;;;;;5040314;28;20437;-82
2022/09/16 12:16:36;;;;;;;8.93;2.40;;;;;;;;;;5041366;28;20433;-82
2022/09/16 12:19:07;;;;;;;10.43;2.28;;;;;;;;;;5040434;28;20452;-81
2022/09/16 12:21:37;;;;;;;10.68;2.20;;;;;;;;;;5059922;28;20415;-82
2022/09/16 12:24:06;;;;;;;10.65;2.42;;;;;;;;;;5061606;28;20434;-82
2022/09/16 12:26:35;;;;;;;11.30;2.40;;;;;;;;;;5059772;28;20436;-81
2022/09/16 12:29:05;;;;;;;9.23;2.40;;;;;;;;;;5058813;28;20438;-81
2022/09/16 12:31:33;;;;;;;9.73;2.20;;;;;;;;;;5039342;28;20422;-81
2022/09/16 12:34:02;;;;;;;10.32;2.30;;;;;;;;;;5040566;28;20437;-81
2022/09/16 12:36:30;;;;;;;10.48;2.33;;;;;;;;;;5037098;28;20430;-81
2022/09/16 12:38:59;;;;;;;10.13;2.58;;;;;;;;;;5039707;28;20945;-82
2022/09/16 12:41:37;;;;;;;8.68;2.25;;;;;;;;;;5039155;28;20428;-81
2022/09/16 12:44:14;;;;;;;14.73;2.50;;;;;;;;;;5038343;28;20423;-84
2022/09/16 12:46:48;;;;;;;14.20;2.92;;;;;;;;;;5038042;28;20918;-81
2022/09/16 12:49:24;;;;;;;14.27;3.22;;;;;;;;;;5038221;28;20457;-81
2022/09/16 12:52:08;;;;;;;12.30;2.70;;;;;;;;;;5041841;28;20459;-82
2022/09/16 12:54:51;;;;;;;11.98;2.78;;;;;;;;;;5038659;28;20768;-82
2022/09/16 12:57:24;;;;;;;11.27;3.20;;;;;;;;;;5038950;28;21010;-82
2022/09/16 13:00:03;;;;;;;9.65;2.80;;;;;;;;;;5039544;28;20442;-80
2022/09/16 13:02:34;;;;;;;10.98;3.25;;;;;;;;;;5041737;28;20497;-81
2022/09/16 13:05:09;;;;;;;11.43;2.80;;;;;;;;;;5038482;28;20423;-80
2022/09/16 13:07:36;;;;;;;11.05;3.63;;;;;;;;;;5039287;28;20448;-80
2022/09/16 13:10:05;;;;;;;18.02;3.67;;;;;;;;;;5041267;28;20453;-81
2022/09/16 13:12:32;;;;;;;12.13;3.33;;;;;;;;;;5042341;28;20469;-82
2022/09/16 13:15:00;;;;;;;11.77;3.42;;;;;;;;;;5044360;28;20426;-82
2022/09/16 13:17:27;;;;;;;12.35;3.10;;;;;;;;;;5044798;28;20437;-83
2022/09/16 13:19:55;;;;;;;10.82;3.03;;;;;;;;;;5044538;28;20918;-82
2022/09/16 13:22:22;;;;;;;14.40;3.80;;;;;;;;;;5043537;28;20435;-83
2022/09/16 13:24:51;;;;;;;16.02;3.63;;;;;;;;;;5041382;28;20439;-82
2022/09/16 13:27:28;;;;;;;13.93;3.73;;;;;;;;;;5042770;28;20505;-83
2022/09/16 13:30:16;;;;;;;13.50;3.20;;;;;;;;;;5044053;28;20586;-81
2022/09/16 13:32:44;;;;;;;17.35;4.00;;;;;;;;;;5043297;28;20436;-81
2022/09/16 13:35:24;;;;;;;15.32;4.30;;;;;;;;;;5042684;28;20431;-81
2022/09/16 13:37:52;;;;;;;16.70;3.50;;;;;;;;;;5043599;28;20436;-81
2022/09/16 13:40:20;;;;;;;17.50;3.50;;;;;;;;;;5042218;28;20434;-81
2022/09/16 13:42:48;;;;;;;17.90;3.60;;;;;;;;;;5041732;28;20431;-81
2022/09/16 13:45:31;;;;;;;11.02;3.78;;;;;;;;;;5039277;28;20441;-82
2022/09/16 13:47:57;;;;;;;16.17;3.60;;;;;;;;;;5048819;28;20431;-80
2022/09/16 13:50:25;;;;;;;12.65;3.28;;;;;;;;;;5044485;28;20793;-80
2022/09/16 13:52:52;;;;;;;14.30;3.15;;;;;;;;;;5042093;28;20433;-82
2022/09/16 13:55:21;;;;;;;18.63;4.20;;;;;;;;;;5042379;28;20431;-81
2022/09/16 13:57:54;;;;;;;15.27;3.33;;;;;;;;;;5042570;28;20487;-82
2022/09/16 14:00:21;;;;;;;15.68;3.53;;;;;;;;;;5042238;28;20439;-80
2022/09/16 14:03:15;;;;;;;17.63;3.65;;;;;;;;;;5043691;28;20433;-80
2022/09/16 14:06:04;;;;;;;13.07;3.20;;;;;;;;;;4999514;28;20457;-81
2022/09/16 14:08:36;;;;;;;12.73;3.15;;;;;;;;;;5012110;28;20435;-83
2022/09/16 14:11:07;;;;;;;7.63;2.53;;;;;;;;;;5043111;28;20946;-81
2022/09/16 14:13:38;;;;;;;8.70;2.40;;;;;;;;;;5040579;28;20478;-78
2022/09/16 14:16:05;;;;;;;10.13;2.30;;;;;;;;;;5039085;28;20439;-81
2022/09/16 14:18:33;;;;;;;8.07;2.10;;;;;;;;;;5042933;28;20441;-80
2022/09/16 14:21:01;;;;;;;7.75;2.10;;;;;;;;;;5041404;28;20419;-80
2022/09/16 14:23:28;;;;;;;5.17;1.50;;;;;;;;;;5038938;28;20453;-81
2022/09/16 14:25:55;;;;;;;5.72;1.50;;;;;;;;;;5042863;28;20426;-80
2022/09/16 14:28:23;;;;;;;2.88;1.27;;;;;;;;;;5041139;28;20439;-80
2022/09/16 14:30:53;;;;;;;6.07;1.57;;;;;;;;;;5040914;28;20428;-81
2022/09/16 14:33:23;;;;;;;4.55;1.33;;;;;;;;;;5042099;28;20429;-80
2022/09/16 14:35:50;;;;;;;4.50;1.60;;;;;;;;;;5042811;28;20426;-81
2022/09/16 14:38:18;;;;;;;7.22;1.30;;;;;;;;;;5038690;28;20812;-80
2022/09/16 14:40:45;;;;;;;3.30;1.38;;;;;;;;;;5041993;28;20991;-82
2022/09/16 14:43:14;;;;;;;6.30;1.27;;;;;;;;;;5041343;28;20437;-83
2022/09/16 14:45:44;;;;;;;4.82;1.30;;;;;;;;;;5041779;28;20427;-81
2022/09/16 14:48:14;;;;;;;7.28;1.40;;;;;;;;;;5039072;28;20436;-81
2022/09/16 14:50:43;;;;;;;4.25;1.20;;;;;;;;;;5041825;28;20437;-82
2022/09/16 14:53:22;;;;;;;8.00;1.70;;;;;;;;;;5041578;28;20423;-82